sensor_id;sensor_type;location;lat;lon;timestamp;temperature;humidity
439;DHT22;206;48.782;9.252;2023-07-13T00:00:41;24.20;16.80
439;DHT22;206;48.782;9.252;2023-07-13T00:03:16;24.10;16.90
439;DHT22;206;48.782;9.252;2023-07-13T00:05:44;24.10;17.10
439;DHT22;206;48.782;9.252;2023-07-13T00:08:10;24.00;17.30
439;DHT22;206;48.782;9.252;2023-07-13T00:10:42;24.10;17.40
439;DHT22;206;48.782;9.252;2023-07-13T00:13:08;24.00;17.40
439;DHT22;206;48.782;9.252;2023-07-13T00:15:35;24.00;17.40
439;DHT22;206;48.782;9.252;2023-07-13T00:18:01;24.00;17.10
439;DHT22;206;48.782;9.252;2023-07-13T00:20:26;23.80;17.70
439;DHT22;206;48.782;9.252;2023-07-13T00:22:53;23.80;18.00
439;DHT22;206;48.782;9.252;2023-07-13T00:25:20;23.80;17.80
439;DHT22;206;48.782;9.252;2023-07-13T00:27:47;23.70;17.90
439;DHT22;206;48.782;9.252;2023-07-13T00:30:16;23.60;17.90
439;DHT22;206;48.782;9.252;2023-07-13T00:32:42;23.70;17.90
439;DHT22;206;48.782;9.252;2023-07-13T00:35:08;23.60;17.90
439;DHT22;206;48.782;9.252;2023-07-13T00:37:34;23.60;17.90
439;DHT22;206;48.782;9.252;2023-07-13T00:40:02;23.50;17.80
439;DHT22;206;48.782;9.252;2023-07-13T00:42:28;23.60;17.90
439;DHT22;206;48.782;9.252;2023-07-13T00:47:45;23.50;17.80
439;DHT22;206;48.782;9.252;2023-07-13T00:50:14;23.50;17.80
439;DHT22;206;48.782;9.252;2023-07-13T00:52:44;23.50;17.80
439;DHT22;206;48.782;9.252;2023-07-13T00:55:11;23.50;17.80
439;DHT22;206;48.782;9.252;2023-07-13T00:57:38;23.50;17.80
439;DHT22;206;48.782;9.252;2023-07-13T01:00:05;23.50;17.80
439;DHT22;206;48.782;9.252;2023-07-13T01:02:37;23.40;17.80
439;DHT22;206;48.782;9.252;2023-07-13T01:05:12;23.40;17.70
439;DHT22;206;48.782;9.252;2023-07-13T01:07:39;23.40;17.70
439;DHT22;206;48.782;9.252;2023-07-13T01:10:06;23.30;17.70
439;DHT22;206;48.782;9.252;2023-07-13T01:12:32;23.30;17.70
439;DHT22;206;48.782;9.252;2023-07-13T01:14:58;23.20;17.60
439;DHT22;206;48.782;9.252;2023-07-13T01:17:26;23.20;17.60
439;DHT22;206;48.782;9.252;2023-07-13T01:19:52;23.10;17.50
439;DHT22;206;48.782;9.252;2023-07-13T01:22:19;23.10;17.50
439;DHT22;206;48.782;9.252;2023-07-13T01:24:46;23.10;17.50
439;DHT22;206;48.782;9.252;2023-07-13T01:27:15;23.00;17.50
439;DHT22;206;48.782;9.252;2023-07-13T01:29:44;23.00;18.00
439;DHT22;206;48.782;9.252;2023-07-13T01:32:14;23.00;17.50
439;DHT22;206;48.782;9.252;2023-07-13T01:34:40;23.00;17.50
439;DHT22;206;48.782;9.252;2023-07-13T01:37:10;23.00;17.50
439;DHT22;206;48.782;9.252;2023-07-13T01:39:36;23.00;17.50
439;DHT22;206;48.782;9.252;2023-07-13T01:42:03;22.90;18.40
439;DHT22;206;48.782;9.252;2023-07-13T01:44:28;22.90;18.30
439;DHT22;206;48.782;9.252;2023-07-13T01:46:54;22.90;17.40
439;DHT22;206;48.782;9.252;2023-07-13T01:49:20;22.90;18.10
439;DHT22;206;48.782;9.252;2023-07-13T01:51:45;22.80;17.40
439;DHT22;206;48.782;9.252;2023-07-13T01:54:11;22.80;17.30
439;DHT22;206;48.782;9.252;2023-07-13T01:56:37;22.80;17.30
439;DHT22;206;48.782;9.252;2023-07-13T01:59:02;22.80;17.30
439;DHT22;206;48.782;9.252;2023-07-13T02:01:28;22.80;17.90
439;DHT22;206;48.782;9.252;2023-07-13T02:03:53;22.80;17.80
439;DHT22;206;48.782;9.252;2023-07-13T02:06:19;22.80;18.00
439;DHT22;206;48.782;9.252;2023-07-13T02:08:44;22.80;18.20
439;DHT22;206;48.782;9.252;2023-07-13T02:11:10;22.80;18.30
439;DHT22;206;48.782;9.252;2023-07-13T02:13:36;22.70;18.20
439;DHT22;206;48.782;9.252;2023-07-13T02:16:01;22.70;18.20
439;DHT22;206;48.782;9.252;2023-07-13T02:18:27;22.70;18.30
439;DHT22;206;48.782;9.252;2023-07-13T02:20:53;22.70;18.00
439;DHT22;206;48.782;9.252;2023-07-13T02:23:19;22.70;18.20
439;DHT22;206;48.782;9.252;2023-07-13T02:25:45;22.70;18.10
439;DHT22;206;48.782;9.252;2023-07-13T02:28:10;22.70;17.90
439;DHT22;206;48.782;9.252;2023-07-13T02:30:36;22.70;17.30
439;DHT22;206;48.782;9.252;2023-07-13T02:33:04;22.70;17.90
439;DHT22;206;48.782;9.252;2023-07-13T02:35:30;22.60;18.00
439;DHT22;206;48.782;9.252;2023-07-13T02:37:55;22.50;19.40
439;DHT22;206;48.782;9.252;2023-07-13T02:40:21;22.40;20.30
439;DHT22;206;48.782;9.252;2023-07-13T02:42:46;22.20;20.60
439;DHT22;206;48.782;9.252;2023-07-13T02:45:12;22.00;20.70
439;DHT22;206;48.782;9.252;2023-07-13T02:47:40;21.90;21.20
439;DHT22;206;48.782;9.252;2023-07-13T02:50:07;21.80;21.20
439;DHT22;206;48.782;9.252;2023-07-13T02:52:33;21.70;21.50
439;DHT22;206;48.782;9.252;2023-07-13T02:54:58;21.60;21.70
439;DHT22;206;48.782;9.252;2023-07-13T02:57:24;21.50;21.90
439;DHT22;206;48.782;9.252;2023-07-13T02:59:49;21.30;22.40
439;DHT22;206;48.782;9.252;2023-07-13T03:02:15;21.20;22.40
439;DHT22;206;48.782;9.252;2023-07-13T03:04:41;21.10;22.50
439;DHT22;206;48.782;9.252;2023-07-13T03:07:07;21.10;22.80
439;DHT22;206;48.782;9.252;2023-07-13T03:09:34;21.00;22.40
439;DHT22;206;48.782;9.252;2023-07-13T03:11:59;21.00;22.40
439;DHT22;206;48.782;9.252;2023-07-13T03:14:25;21.10;23.00
439;DHT22;206;48.782;9.252;2023-07-13T03:16:51;21.20;22.40
439;DHT22;206;48.782;9.252;2023-07-13T03:19:17;21.30;22.60
439;DHT22;206;48.782;9.252;2023-07-13T03:21:43;21.20;23.00
439;DHT22;206;48.782;9.252;2023-07-13T03:24:09;21.10;23.30
439;DHT22;206;48.782;9.252;2023-07-13T03:26:34;21.10;23.80
439;DHT22;206;48.782;9.252;2023-07-13T03:29:00;21.10;23.80
439;DHT22;206;48.782;9.252;2023-07-13T03:31:28;21.10;23.60
439;DHT22;206;48.782;9.252;2023-07-13T03:33:54;21.00;24.10
439;DHT22;206;48.782;9.252;2023-07-13T03:36:24;20.90;24.50
439;DHT22;206;48.782;9.252;2023-07-13T03:38:53;20.90;24.20
439;DHT22;206;48.782;9.252;2023-07-13T03:41:19;21.00;23.80
439;DHT22;206;48.782;9.252;2023-07-13T03:43:45;21.00;24.30
439;DHT22;206;48.782;9.252;2023-07-13T03:46:10;21.00;24.50
439;DHT22;206;48.782;9.252;2023-07-13T03:48:36;21.00;23.90
439;DHT22;206;48.782;9.252;2023-07-13T03:51:02;21.00;23.80
439;DHT22;206;48.782;9.252;2023-07-13T03:53:27;21.10;24.00
439;DHT22;206;48.782;9.252;2023-07-13T03:55:53;21.00;24.50
439;DHT22;206;48.782;9.252;2023-07-13T03:58:31;21.10;24.60
439;DHT22;206;48.782;9.252;2023-07-13T04:00:58;21.20;24.00
439;DHT22;206;48.782;9.252;2023-07-13T04:03:24;21.20;24.10
439;DHT22;206;48.782;9.252;2023-07-13T04:05:50;21.10;24.60
439;DHT22;206;48.782;9.252;2023-07-13T04:08:16;21.20;25.80
439;DHT22;206;48.782;9.252;2023-07-13T04:10:42;21.40;25.40
439;DHT22;206;48.782;9.252;2023-07-13T04:13:08;21.50;24.80
439;DHT22;206;48.782;9.252;2023-07-13T04:15:33;21.50;24.30
439;DHT22;206;48.782;9.252;2023-07-13T04:17:59;21.50;24.20
439;DHT22;206;48.782;9.252;2023-07-13T04:20:25;21.50;23.90
439;DHT22;206;48.782;9.252;2023-07-13T04:22:51;21.70;23.70
439;DHT22;206;48.782;9.252;2023-07-13T04:25:20;21.70;23.70
439;DHT22;206;48.782;9.252;2023-07-13T04:27:45;21.70;23.30
439;DHT22;206;48.782;9.252;2023-07-13T04:30:11;21.70;23.80
439;DHT22;206;48.782;9.252;2023-07-13T04:32:37;21.70;22.40
439;DHT22;206;48.782;9.252;2023-07-13T04:35:02;21.60;23.00
439;DHT22;206;48.782;9.252;2023-07-13T04:37:28;21.80;23.60
439;DHT22;206;48.782;9.252;2023-07-13T04:39:54;22.00;22.30
439;DHT22;206;48.782;9.252;2023-07-13T04:42:20;22.10;22.70
439;DHT22;206;48.782;9.252;2023-07-13T04:44:50;21.90;23.10
439;DHT22;206;48.782;9.252;2023-07-13T04:47:16;21.90;23.10
439;DHT22;206;48.782;9.252;2023-07-13T04:49:42;22.00;23.00
439;DHT22;206;48.782;9.252;2023-07-13T04:52:08;22.20;22.60
439;DHT22;206;48.782;9.252;2023-07-13T04:54:34;22.30;21.90
439;DHT22;206;48.782;9.252;2023-07-13T04:57:00;22.30;21.70
439;DHT22;206;48.782;9.252;2023-07-13T04:59:25;22.40;20.50
439;DHT22;206;48.782;9.252;2023-07-13T05:01:51;22.50;19.40
439;DHT22;206;48.782;9.252;2023-07-13T05:04:17;22.70;18.40
439;DHT22;206;48.782;9.252;2023-07-13T05:06:42;22.80;17.80
439;DHT22;206;48.782;9.252;2023-07-13T05:09:08;22.90;17.70
439;DHT22;206;48.782;9.252;2023-07-13T05:11:34;23.00;17.50
439;DHT22;206;48.782;9.252;2023-07-13T05:14:00;23.10;17.60
439;DHT22;206;48.782;9.252;2023-07-13T05:16:27;23.10;16.80
439;DHT22;206;48.782;9.252;2023-07-13T05:18:52;23.20;17.30
439;DHT22;206;48.782;9.252;2023-07-13T05:21:18;23.30;16.50
439;DHT22;206;48.782;9.252;2023-07-13T05:23:43;23.20;16.10
439;DHT22;206;48.782;9.252;2023-07-13T05:26:09;23.20;16.80
439;DHT22;206;48.782;9.252;2023-07-13T05:28:35;23.10;16.40
439;DHT22;206;48.782;9.252;2023-07-13T05:31:01;23.00;16.80
439;DHT22;206;48.782;9.252;2023-07-13T05:33:27;23.10;17.50
439;DHT22;206;48.782;9.252;2023-07-13T05:35:52;23.10;16.70
439;DHT22;206;48.782;9.252;2023-07-13T05:38:18;23.20;16.60
439;DHT22;206;48.782;9.252;2023-07-13T05:40:45;23.20;16.60
439;DHT22;206;48.782;9.252;2023-07-13T05:43:11;23.20;16.60
439;DHT22;206;48.782;9.252;2023-07-13T05:45:37;23.30;16.30
439;DHT22;206;48.782;9.252;2023-07-13T05:48:03;23.30;15.70
439;DHT22;206;48.782;9.252;2023-07-13T05:50:28;23.40;15.80
439;DHT22;206;48.782;9.252;2023-07-13T05:52:54;23.40;16.00
439;DHT22;206;48.782;9.252;2023-07-13T05:55:20;23.40;15.80
439;DHT22;206;48.782;9.252;2023-07-13T05:57:46;23.40;15.90
439;DHT22;206;48.782;9.252;2023-07-13T06:00:12;23.40;15.60
439;DHT22;206;48.782;9.252;2023-07-13T06:02:38;23.40;15.50
439;DHT22;206;48.782;9.252;2023-07-13T06:05:04;23.40;15.50
439;DHT22;206;48.782;9.252;2023-07-13T06:07:30;23.50;15.30
439;DHT22;206;48.782;9.252;2023-07-13T06:09:55;23.60;15.90
439;DHT22;206;48.782;9.252;2023-07-13T06:12:21;23.50;15.30
439;DHT22;206;48.782;9.252;2023-07-13T06:14:47;23.40;15.90
439;DHT22;206;48.782;9.252;2023-07-13T06:17:12;23.30;15.60
439;DHT22;206;48.782;9.252;2023-07-13T06:19:38;23.30;16.00
439;DHT22;206;48.782;9.252;2023-07-13T06:22:04;23.40;15.60
439;DHT22;206;48.782;9.252;2023-07-13T06:24:29;23.60;15.20
439;DHT22;206;48.782;9.252;2023-07-13T06:26:55;23.60;15.10
439;DHT22;206;48.782;9.252;2023-07-13T06:29:21;23.60;15.00
439;DHT22;206;48.782;9.252;2023-07-13T06:31:46;23.60;14.90
439;DHT22;206;48.782;9.252;2023-07-13T06:34:12;23.50;15.10
439;DHT22;206;48.782;9.252;2023-07-13T06:36:37;23.60;14.80
439;DHT22;206;48.782;9.252;2023-07-13T06:39:04;23.80;14.90
439;DHT22;206;48.782;9.252;2023-07-13T06:41:30;24.00;14.10
439;DHT22;206;48.782;9.252;2023-07-13T06:43:56;24.00;14.30
439;DHT22;206;48.782;9.252;2023-07-13T06:46:22;24.20;14.00
439;DHT22;206;48.782;9.252;2023-07-13T06:48:47;24.50;13.80
439;DHT22;206;48.782;9.252;2023-07-13T06:51:13;24.60;12.70
439;DHT22;206;48.782;9.252;2023-07-13T06:53:39;24.80;12.30
439;DHT22;206;48.782;9.252;2023-07-13T06:56:05;24.90;12.30
439;DHT22;206;48.782;9.252;2023-07-13T06:58:31;25.00;12.40
439;DHT22;206;48.782;9.252;2023-07-13T07:00:57;25.20;11.40
439;DHT22;206;48.782;9.252;2023-07-13T07:03:22;25.40;11.20
439;DHT22;206;48.782;9.252;2023-07-13T07:05:48;25.60;10.50
439;DHT22;206;48.782;9.252;2023-07-13T07:08:14;25.60;10.80
439;DHT22;206;48.782;9.252;2023-07-13T07:10:40;25.70;10.50
439;DHT22;206;48.782;9.252;2023-07-13T07:13:06;25.70;10.50
439;DHT22;206;48.782;9.252;2023-07-13T07:15:31;25.80;10.60
439;DHT22;206;48.782;9.252;2023-07-13T07:17:57;26.00;9.90
439;DHT22;206;48.782;9.252;2023-07-13T07:20:23;26.00;9.80
439;DHT22;206;48.782;9.252;2023-07-13T07:22:49;26.20;10.00
439;DHT22;206;48.782;9.252;2023-07-13T07:25:14;26.40;8.70
439;DHT22;206;48.782;9.252;2023-07-13T07:27:40;26.40;8.30
439;DHT22;206;48.782;9.252;2023-07-13T07:30:06;26.40;8.30
439;DHT22;206;48.782;9.252;2023-07-13T07:32:32;26.40;8.30
439;DHT22;206;48.782;9.252;2023-07-13T07:34:58;26.40;8.60
439;DHT22;206;48.782;9.252;2023-07-13T07:37:24;26.40;8.50
439;DHT22;206;48.782;9.252;2023-07-13T07:39:50;26.50;9.20
439;DHT22;206;48.782;9.252;2023-07-13T07:42:16;26.70;8.10
439;DHT22;206;48.782;9.252;2023-07-13T07:44:42;26.60;8.20
439;DHT22;206;48.782;9.252;2023-07-13T07:47:08;26.80;7.80
439;DHT22;206;48.782;9.252;2023-07-13T07:49:34;26.90;7.50
439;DHT22;206;48.782;9.252;2023-07-13T07:52:00;27.00;7.20
439;DHT22;206;48.782;9.252;2023-07-13T07:54:26;27.20;6.70
439;DHT22;206;48.782;9.252;2023-07-13T07:56:51;27.40;6.00
439;DHT22;206;48.782;9.252;2023-07-13T07:59:18;27.50;5.50
439;DHT22;206;48.782;9.252;2023-07-13T08:01:44;27.60;5.30
439;DHT22;206;48.782;9.252;2023-07-13T08:04:11;27.40;5.30
439;DHT22;206;48.782;9.252;2023-07-13T08:06:37;27.40;5.60
439;DHT22;206;48.782;9.252;2023-07-13T08:09:03;27.60;5.40
439;DHT22;206;48.782;9.252;2023-07-13T08:11:29;27.70;4.90
439;DHT22;206;48.782;9.252;2023-07-13T08:13:55;27.80;4.80
439;DHT22;206;48.782;9.252;2023-07-13T08:16:21;27.80;5.00
439;DHT22;206;48.782;9.252;2023-07-13T08:18:47;27.60;5.10
439;DHT22;206;48.782;9.252;2023-07-13T08:21:13;27.60;5.50
439;DHT22;206;48.782;9.252;2023-07-13T08:23:38;27.50;5.10
439;DHT22;206;48.782;9.252;2023-07-13T08:26:04;27.50;5.30
439;DHT22;206;48.782;9.252;2023-07-13T08:28:30;27.70;4.90
439;DHT22;206;48.782;9.252;2023-07-13T08:31:04;27.90;4.30
439;DHT22;206;48.782;9.252;2023-07-13T08:33:30;28.00;4.30
439;DHT22;206;48.782;9.252;2023-07-13T08:35:56;28.20;4.70
439;DHT22;206;48.782;9.252;2023-07-13T08:38:22;27.90;4.80
439;DHT22;206;48.782;9.252;2023-07-13T08:40:52;28.00;4.60
439;DHT22;206;48.782;9.252;2023-07-13T08:43:25;28.00;3.90
439;DHT22;206;48.782;9.252;2023-07-13T08:48:53;27.80;4.50
439;DHT22;206;48.782;9.252;2023-07-13T08:54:36;28.20;3.80
439;DHT22;206;48.782;9.252;2023-07-13T08:57:15;28.20;3.90
439;DHT22;206;48.782;9.252;2023-07-13T08:59:42;28.10;4.00
439;DHT22;206;48.782;9.252;2023-07-13T09:05:10;27.90;4.50
439;DHT22;206;48.782;9.252;2023-07-13T09:10:32;28.00;4.50
439;DHT22;206;48.782;9.252;2023-07-13T09:15:50;27.30;5.40
439;DHT22;206;48.782;9.252;2023-07-13T09:18:30;27.40;5.50
439;DHT22;206;48.782;9.252;2023-07-13T09:21:02;27.30;5.60
439;DHT22;206;48.782;9.252;2023-07-13T09:23:29;27.30;5.60
439;DHT22;206;48.782;9.252;2023-07-13T09:28:35;27.30;5.60
439;DHT22;206;48.782;9.252;2023-07-13T09:31:26;27.40;5.20
439;DHT22;206;48.782;9.252;2023-07-13T09:33:54;27.50;5.20
439;DHT22;206;48.782;9.252;2023-07-13T09:41:55;27.80;6.00
439;DHT22;206;48.782;9.252;2023-07-13T09:44:36;27.90;5.00
439;DHT22;206;48.782;9.252;2023-07-13T09:47:02;28.00;4.50
439;DHT22;206;48.782;9.252;2023-07-13T09:49:33;27.90;4.50
439;DHT22;206;48.782;9.252;2023-07-13T09:52:01;28.00;5.10
439;DHT22;206;48.782;9.252;2023-07-13T09:54:28;28.10;4.40
439;DHT22;206;48.782;9.252;2023-07-13T09:56:58;28.00;4.20
439;DHT22;206;48.782;9.252;2023-07-13T09:59:29;27.80;4.70
439;DHT22;206;48.782;9.252;2023-07-13T10:01:55;27.80;4.80
439;DHT22;206;48.782;9.252;2023-07-13T10:04:31;27.80;4.40
439;DHT22;206;48.782;9.252;2023-07-13T10:07:08;27.90;4.30
439;DHT22;206;48.782;9.252;2023-07-13T10:09:36;27.90;4.20
439;DHT22;206;48.782;9.252;2023-07-13T10:12:12;27.80;4.30
439;DHT22;206;48.782;9.252;2023-07-13T10:14:38;27.80;4.50
439;DHT22;206;48.782;9.252;2023-07-13T10:17:05;28.00;4.20
439;DHT22;206;48.782;9.252;2023-07-13T10:19:35;28.10;4.00
439;DHT22;206;48.782;9.252;2023-07-13T10:22:10;28.00;4.20
439;DHT22;206;48.782;9.252;2023-07-13T10:24:39;28.00;4.30
439;DHT22;206;48.782;9.252;2023-07-13T10:27:30;27.90;4.30
439;DHT22;206;48.782;9.252;2023-07-13T10:32:35;28.00;4.00
439;DHT22;206;48.782;9.252;2023-07-13T10:35:01;28.20;4.10
439;DHT22;206;48.782;9.252;2023-07-13T10:37:44;28.20;3.50
439;DHT22;206;48.782;9.252;2023-07-13T10:40:41;27.90;3.80
439;DHT22;206;48.782;9.252;2023-07-13T10:43:55;28.00;4.10
439;DHT22;206;48.782;9.252;2023-07-13T10:45:56;28.00;3.90
439;DHT22;206;48.782;9.252;2023-07-13T10:48:23;28.10;4.30
439;DHT22;206;48.782;9.252;2023-07-13T10:50:51;28.00;3.90
439;DHT22;206;48.782;9.252;2023-07-13T10:58:28;28.20;3.80
439;DHT22;206;48.782;9.252;2023-07-13T11:03:36;28.10;3.70
439;DHT22;206;48.782;9.252;2023-07-13T11:08:37;28.20;3.70
439;DHT22;206;48.782;9.252;2023-07-13T11:11:32;28.20;3.50
439;DHT22;206;48.782;9.252;2023-07-13T11:18:52;28.20;3.60
439;DHT22;206;48.782;9.252;2023-07-13T11:21:25;28.40;4.20
439;DHT22;206;48.782;9.252;2023-07-13T11:23:54;28.50;2.90
439;DHT22;206;48.782;9.252;2023-07-13T11:26:39;28.50;3.40
439;DHT22;206;48.782;9.252;2023-07-13T11:29:22;28.50;3.50
439;DHT22;206;48.782;9.252;2023-07-13T11:31:55;28.30;4.10
439;DHT22;206;48.782;9.252;2023-07-13T11:36:51;27.90;4.40
439;DHT22;206;48.782;9.252;2023-07-13T11:39:21;28.00;4.30
439;DHT22;206;48.782;9.252;2023-07-13T11:41:58;28.00;3.80
439;DHT22;206;48.782;9.252;2023-07-13T11:44:26;28.00;4.00
439;DHT22;206;48.782;9.252;2023-07-13T11:46:54;28.00;4.20
439;DHT22;206;48.782;9.252;2023-07-13T11:49:25;28.00;4.10
439;DHT22;206;48.782;9.252;2023-07-13T11:51:52;27.80;4.30
439;DHT22;206;48.782;9.252;2023-07-13T11:54:33;27.80;4.40
439;DHT22;206;48.782;9.252;2023-07-13T11:57:17;28.00;4.60
439;DHT22;206;48.782;9.252;2023-07-13T11:59:45;28.20;3.80
439;DHT22;206;48.782;9.252;2023-07-13T12:02:53;28.40;3.40
439;DHT22;206;48.782;9.252;2023-07-13T12:05:20;28.50;3.00
439;DHT22;206;48.782;9.252;2023-07-13T12:07:49;28.50;2.90
439;DHT22;206;48.782;9.252;2023-07-13T12:10:21;28.30;3.40
439;DHT22;206;48.782;9.252;2023-07-13T12:12:56;28.20;3.60
439;DHT22;206;48.782;9.252;2023-07-13T12:15:28;28.30;3.10
439;DHT22;206;48.782;9.252;2023-07-13T12:17:56;28.40;2.90
439;DHT22;206;48.782;9.252;2023-07-13T12:20:27;28.40;2.90
439;DHT22;206;48.782;9.252;2023-07-13T12:22:55;28.50;2.90
439;DHT22;206;48.782;9.252;2023-07-13T12:25:22;28.50;2.90
439;DHT22;206;48.782;9.252;2023-07-13T12:27:49;28.60;3.00
439;DHT22;206;48.782;9.252;2023-07-13T12:30:28;28.70;3.10
439;DHT22;206;48.782;9.252;2023-07-13T12:33:01;28.80;3.10
439;DHT22;206;48.782;9.252;2023-07-13T12:35:30;28.90;3.10
439;DHT22;206;48.782;9.252;2023-07-13T12:37:59;28.60;3.00
439;DHT22;206;48.782;9.252;2023-07-13T12:40:32;28.60;3.00
439;DHT22;206;48.782;9.252;2023-07-13T12:42:59;28.70;2.80
439;DHT22;206;48.782;9.252;2023-07-13T12:45:27;28.60;3.00
439;DHT22;206;48.782;9.252;2023-07-13T12:48:19;28.50;2.90
439;DHT22;206;48.782;9.252;2023-07-13T12:50:47;28.50;2.90
439;DHT22;206;48.782;9.252;2023-07-13T12:53:16;28.30;2.80
439;DHT22;206;48.782;9.252;2023-07-13T12:55:51;28.20;2.80
439;DHT22;206;48.782;9.252;2023-07-13T12:58:26;28.10;2.80
439;DHT22;206;48.782;9.252;2023-07-13T13:00:55;28.20;2.80
439;DHT22;206;48.782;9.252;2023-07-13T13:03:32;28.20;2.80
439;DHT22;206;48.782;9.252;2023-07-13T13:06:17;28.20;2.80
439;DHT22;206;48.782;9.252;2023-07-13T13:08:50;28.30;2.80
439;DHT22;206;48.782;9.252;2023-07-13T13:11:17;28.30;2.80
439;DHT22;206;48.782;9.252;2023-07-13T13:13:43;28.20;2.80
439;DHT22;206;48.782;9.252;2023-07-13T13:16:18;28.20;2.80
439;DHT22;206;48.782;9.252;2023-07-13T13:18:45;28.30;2.90
439;DHT22;206;48.782;9.252;2023-07-13T13:21:10;28.50;2.90
439;DHT22;206;48.782;9.252;2023-07-13T13:23:36;28.60;1.90
439;DHT22;206;48.782;9.252;2023-07-13T13:26:02;28.50;2.40
439;DHT22;206;48.782;9.252;2023-07-13T13:28:29;28.50;2.20
439;DHT22;206;48.782;9.252;2023-07-13T13:30:54;28.50;1.80
439;DHT22;206;48.782;9.252;2023-07-13T13:33:21;28.40;1.90
439;DHT22;206;48.782;9.252;2023-07-13T13:35:47;28.40;2.10
439;DHT22;206;48.782;9.252;2023-07-13T13:38:26;28.50;2.10
439;DHT22;206;48.782;9.252;2023-07-13T13:40:52;28.50;2.20
439;DHT22;206;48.782;9.252;2023-07-13T13:43:22;28.70;1.70
439;DHT22;206;48.782;9.252;2023-07-13T13:45:52;28.80;1.40
439;DHT22;206;48.782;9.252;2023-07-13T13:48:21;28.80;1.40
439;DHT22;206;48.782;9.252;2023-07-13T13:50:55;28.80;1.70
439;DHT22;206;48.782;9.252;2023-07-13T13:53:21;28.90;1.80
439;DHT22;206;48.782;9.252;2023-07-13T13:55:49;28.90;1.30
439;DHT22;206;48.782;9.252;2023-07-13T13:58:14;28.90;1.10
439;DHT22;206;48.782;9.252;2023-07-13T14:00:40;28.80;1.50
439;DHT22;206;48.782;9.252;2023-07-13T14:03:13;28.90;1.30
439;DHT22;206;48.782;9.252;2023-07-13T14:05:39;28.90;1.30
439;DHT22;206;48.782;9.252;2023-07-13T14:08:18;28.90;1.00
439;DHT22;206;48.782;9.252;2023-07-13T14:10:50;28.90;1.00
439;DHT22;206;48.782;9.252;2023-07-13T14:13:26;28.90;1.00
439;DHT22;206;48.782;9.252;2023-07-13T14:15:54;28.80;1.00
439;DHT22;206;48.782;9.252;2023-07-13T14:18:20;28.60;1.20
439;DHT22;206;48.782;9.252;2023-07-13T14:20:46;28.50;1.60
439;DHT22;206;48.782;9.252;2023-07-13T14:23:13;28.40;1.50
439;DHT22;206;48.782;9.252;2023-07-13T14:25:39;28.30;1.40
439;DHT22;206;48.782;9.252;2023-07-13T14:28:23;28.30;1.60
439;DHT22;206;48.782;9.252;2023-07-13T14:30:50;28.10;2.20
439;DHT22;206;48.782;9.252;2023-07-13T14:33:16;28.20;2.30
439;DHT22;206;48.782;9.252;2023-07-13T14:35:42;28.20;2.20
439;DHT22;206;48.782;9.252;2023-07-13T14:38:20;28.20;2.80
439;DHT22;206;48.782;9.252;2023-07-13T14:40:46;28.30;2.40
439;DHT22;206;48.782;9.252;2023-07-13T14:43:13;28.50;2.20
439;DHT22;206;48.782;9.252;2023-07-13T14:45:42;28.60;1.60
439;DHT22;206;48.782;9.252;2023-07-13T14:48:22;28.60;1.40
439;DHT22;206;48.782;9.252;2023-07-13T14:50:55;28.50;1.00
439;DHT22;206;48.782;9.252;2023-07-13T14:53:22;28.30;1.10
439;DHT22;206;48.782;9.252;2023-07-13T14:55:48;28.20;1.30
439;DHT22;206;48.782;9.252;2023-07-13T14:58:13;28.30;1.60
439;DHT22;206;48.782;9.252;2023-07-13T15:00:39;28.40;1.70
439;DHT22;206;48.782;9.252;2023-07-13T15:03:08;28.50;2.10
439;DHT22;206;48.782;9.252;2023-07-13T15:05:39;28.50;1.80
439;DHT22;206;48.782;9.252;2023-07-13T15:08:05;28.60;1.70
439;DHT22;206;48.782;9.252;2023-07-13T15:10:32;28.70;1.80
439;DHT22;206;48.782;9.252;2023-07-13T15:16:01;28.90;1.70
439;DHT22;206;48.782;9.252;2023-07-13T15:18:26;28.90;1.90
439;DHT22;206;48.782;9.252;2023-07-13T15:20:53;28.90;2.00
439;DHT22;206;48.782;9.252;2023-07-13T15:23:22;29.10;1.50
439;DHT22;206;48.782;9.252;2023-07-13T15:25:48;29.10;1.30
439;DHT22;206;48.782;9.252;2023-07-13T15:28:14;29.00;1.80
439;DHT22;206;48.782;9.252;2023-07-13T15:30:48;29.00;1.90
439;DHT22;206;48.782;9.252;2023-07-13T15:33:23;29.00;1.80
439;DHT22;206;48.782;9.252;2023-07-13T15:35:49;28.70;1.60
439;DHT22;206;48.782;9.252;2023-07-13T15:38:24;28.60;2.00
439;DHT22;206;48.782;9.252;2023-07-13T15:40:51;28.70;1.80
439;DHT22;206;48.782;9.252;2023-07-13T15:43:18;28.80;1.80
439;DHT22;206;48.782;9.252;2023-07-13T15:45:45;28.80;2.00
439;DHT22;206;48.782;9.252;2023-07-13T15:48:21;28.60;1.60
439;DHT22;206;48.782;9.252;2023-07-13T15:50:53;28.50;2.10
439;DHT22;206;48.782;9.252;2023-07-13T15:53:31;28.50;2.20
439;DHT22;206;48.782;9.252;2023-07-13T15:55:58;28.50;2.20
439;DHT22;206;48.782;9.252;2023-07-13T15:58:24;28.50;1.80
439;DHT22;206;48.782;9.252;2023-07-13T16:00:50;28.50;3.00
439;DHT22;206;48.782;9.252;2023-07-13T16:03:17;28.60;3.00
439;DHT22;206;48.782;9.252;2023-07-13T16:05:44;28.60;3.00
439;DHT22;206;48.782;9.252;2023-07-13T16:08:23;28.70;1.90
439;DHT22;206;48.782;9.252;2023-07-13T16:10:49;28.70;2.40
439;DHT22;206;48.782;9.252;2023-07-13T16:13:16;28.70;1.80
439;DHT22;206;48.782;9.252;2023-07-13T16:15:42;28.60;2.00
439;DHT22;206;48.782;9.252;2023-07-13T16:18:10;28.50;2.40
439;DHT22;206;48.782;9.252;2023-07-13T16:20:36;28.40;2.60
439;DHT22;206;48.782;9.252;2023-07-13T16:23:02;28.30;2.20
439;DHT22;206;48.782;9.252;2023-07-13T16:25:29;28.20;2.80
439;DHT22;206;48.782;9.252;2023-07-13T16:27:56;28.30;2.80
439;DHT22;206;48.782;9.252;2023-07-13T16:30:26;28.30;2.80
439;DHT22;206;48.782;9.252;2023-07-13T16:32:58;28.40;3.30
439;DHT22;206;48.782;9.252;2023-07-13T16:35:30;28.50;3.80
439;DHT22;206;48.782;9.252;2023-07-13T16:38:17;28.50;2.90
439;DHT22;206;48.782;9.252;2023-07-13T16:40:43;28.50;1.40
439;DHT22;206;48.782;9.252;2023-07-13T16:43:11;28.20;2.40
439;DHT22;206;48.782;9.252;2023-07-13T16:45:39;28.10;2.10
439;DHT22;206;48.782;9.252;2023-07-13T16:48:19;28.10;2.50
439;DHT22;206;48.782;9.252;2023-07-13T16:50:53;28.10;3.40
439;DHT22;206;48.782;9.252;2023-07-13T16:53:24;28.00;2.70
439;DHT22;206;48.782;9.252;2023-07-13T16:55:50;27.90;4.40
439;DHT22;206;48.782;9.252;2023-07-13T16:58:16;27.90;3.30
439;DHT22;206;48.782;9.252;2023-07-13T17:00:43;28.00;3.60
439;DHT22;206;48.782;9.252;2023-07-13T17:03:08;28.00;3.50
439;DHT22;206;48.782;9.252;2023-07-13T17:05:39;28.00;3.60
439;DHT22;206;48.782;9.252;2023-07-13T17:08:22;28.10;2.80
439;DHT22;206;48.782;9.252;2023-07-13T17:11:00;28.00;3.30
439;DHT22;206;48.782;9.252;2023-07-13T17:13:27;28.00;2.70
439;DHT22;206;48.782;9.252;2023-07-13T17:15:54;28.00;3.30
439;DHT22;206;48.782;9.252;2023-07-13T17:18:28;28.00;4.70
439;DHT22;206;48.782;9.252;2023-07-13T17:21:02;28.00;3.20
439;DHT22;206;48.782;9.252;2023-07-13T17:23:30;28.00;3.90
439;DHT22;206;48.782;9.252;2023-07-13T17:25:58;28.00;2.70
439;DHT22;206;48.782;9.252;2023-07-13T17:28:24;28.00;3.30
439;DHT22;206;48.782;9.252;2023-07-13T17:30:51;27.90;4.20
439;DHT22;206;48.782;9.252;2023-07-13T17:35:58;27.80;3.00
439;DHT22;206;48.782;9.252;2023-07-13T17:38:46;27.70;4.00
439;DHT22;206;48.782;9.252;2023-07-13T17:41:16;27.60;3.40
439;DHT22;206;48.782;9.252;2023-07-13T17:43:43;27.50;4.20